Time;durP1;ratioP1;P1;durP2;ratioP2;P2;SDS_P1;SDS_P2;PMS_P1;PMS_P2;Temp;Humidity;BMP_temperature;BMP_pressure;BME280_temperature;BME280_humidity;BME280_pressure;Samples;Min_cycle;Max_cycle;Signal;HPM_P1;HPM_P2
2022/07/21 00:00:19;;;;;;;18.02;14.52;;;;;;;;;;5020936;28;20629;-62
2022/07/21 00:02:44;;;;;;;17.45;14.82;;;;;;;;;;5021626;28;20207;-62
2022/07/21 00:05:09;;;;;;;17.17;14.60;;;;;;;;;;5021351;28;20595;-62
2022/07/21 00:07:35;;;;;;;16.40;14.38;;;;;;;;;;5021292;28;20725;-62
2022/07/21 00:10:00;;;;;;;17.75;15.35;;;;;;;;;;5020445;28;20227;-62
2022/07/21 00:12:26;;;;;;;18.33;15.15;;;;;;;;;;5029064;28;20703;-62
2022/07/21 00:14:52;;;;;;;16.85;13.55;;;;;;;;;;5023918;28;20323;-62
2022/07/21 00:17:17;;;;;;;19.15;15.27;;;;;;;;;;5001064;28;20216;-62
2022/07/21 00:19:42;;;;;;;17.40;14.27;;;;;;;;;;5002344;28;20215;-62
2022/07/21 00:22:07;;;;;;;19.42;14.77;;;;;;;;;;5001408;28;20220;-62
2022/07/21 00:24:33;;;;;;;19.75;15.95;;;;;;;;;;5001532;28;20901;-62
2022/07/21 00:26:58;;;;;;;19.33;14.95;;;;;;;;;;5001840;28;20274;-62
2022/07/21 00:29:23;;;;;;;18.00;15.43;;;;;;;;;;5001500;28;20216;-62
2022/07/21 00:31:49;;;;;;;18.23;15.02;;;;;;;;;;5001538;28;20227;-62
2022/07/21 00:34:14;;;;;;;18.00;14.27;;;;;;;;;;5001756;28;20220;-62
2022/07/21 00:36:39;;;;;;;17.00;14.85;;;;;;;;;;5002136;28;20220;-62
2022/07/21 00:39:05;;;;;;;18.63;14.40;;;;;;;;;;5000629;28;20223;-62
2022/07/21 00:41:30;;;;;;;19.17;14.88;;;;;;;;;;5001883;28;20798;-62
2022/07/21 00:43:55;;;;;;;18.42;14.68;;;;;;;;;;5001591;28;20597;-62
2022/07/21 00:46:21;;;;;;;18.38;15.25;;;;;;;;;;5000698;28;20654;-61
2022/07/21 00:48:46;;;;;;;17.20;14.48;;;;;;;;;;5001640;28;20283;-61
2022/07/21 00:51:12;;;;;;;14.73;13.13;;;;;;;;;;5001019;28;20661;-61
2022/07/21 00:53:37;;;;;;;15.95;12.85;;;;;;;;;;5013242;28;20266;-61
2022/07/21 00:56:02;;;;;;;13.80;12.13;;;;;;;;;;5020476;28;20208;-61
2022/07/21 00:58:28;;;;;;;14.48;12.45;;;;;;;;;;5020722;28;20222;-61
2022/07/21 01:00:53;;;;;;;13.20;11.80;;;;;;;;;;5021346;28;20216;-61
2022/07/21 01:03:18;;;;;;;14.75;12.45;;;;;;;;;;5020126;28;20211;-61
2022/07/21 01:05:44;;;;;;;15.05;12.38;;;;;;;;;;5020995;28;20243;-61
2022/07/21 01:08:09;;;;;;;15.05;11.82;;;;;;;;;;5020096;28;20216;-61
2022/07/21 01:10:35;;;;;;;15.90;12.23;;;;;;;;;;5020335;28;20814;-61
2022/07/21 01:13:00;;;;;;;13.32;11.93;;;;;;;;;;5020386;28;20207;-61
2022/07/21 01:15:26;;;;;;;16.02;12.98;;;;;;;;;;5030294;28;20220;-61
2022/07/21 01:17:51;;;;;;;14.50;12.75;;;;;;;;;;5021308;28;20273;-61
2022/07/21 01:20:17;;;;;;;13.77;12.10;;;;;;;;;;5020354;28;20222;-61
2022/07/21 01:22:43;;;;;;;15.10;12.55;;;;;;;;;;5025281;28;20227;-61
2022/07/21 01:25:09;;;;;;;15.52;12.63;;;;;;;;;;5043278;28;20234;-61
2022/07/21 01:27:34;;;;;;;14.10;12.02;;;;;;;;;;5044339;28;20215;-61
2022/07/21 01:29:59;;;;;;;16.48;13.65;;;;;;;;;;5033629;28;21368;-61
2022/07/21 01:32:25;;;;;;;18.33;13.80;;;;;;;;;;5024676;28;20215;-61
2022/07/21 01:34:50;;;;;;;15.65;13.88;;;;;;;;;;5043594;28;20211;-61
2022/07/21 01:37:19;;;;;;;13.95;12.43;;;;;;;;;;5044265;28;20214;-61
2022/07/21 01:42:30;;;;;;;14.07;12.57;;;;;;;;;;5014485;28;20219;-61
2022/07/21 01:44:57;;;;;;;14.88;12.82;;;;;;;;;;5013454;28;20228;-61
2022/07/21 01:47:22;;;;;;;14.73;12.23;;;;;;;;;;5023823;28;20705;-61
2022/07/21 01:49:48;;;;;;;15.00;12.00;;;;;;;;;;5023736;28;20220;-61
2022/07/21 01:52:13;;;;;;;16.40;12.35;;;;;;;;;;5023420;28;20599;-61
2022/07/21 01:54:38;;;;;;;14.38;11.95;;;;;;;;;;5024257;28;20222;-61
2022/07/21 01:57:04;;;;;;;13.07;11.65;;;;;;;;;;5023336;28;20671;-61
2022/07/21 01:59:29;;;;;;;13.65;12.10;;;;;;;;;;5024186;28;20219;-61
2022/07/21 02:01:54;;;;;;;12.48;11.10;;;;;;;;;;5024286;28;20240;-61
2022/07/21 02:04:20;;;;;;;14.48;12.13;;;;;;;;;;5022817;28;20223;-61
2022/07/21 02:06:45;;;;;;;13.88;12.40;;;;;;;;;;5023701;28;20600;-61
2022/07/21 02:09:10;;;;;;;20.08;12.30;;;;;;;;;;5022730;28;20228;-61
2022/07/21 02:11:36;;;;;;;14.73;13.18;;;;;;;;;;5023904;28;20297;-61
2022/07/21 02:14:01;;;;;;;13.95;12.13;;;;;;;;;;5023245;28;20216;-62
2022/07/21 02:16:26;;;;;;;14.23;12.70;;;;;;;;;;5004722;28;20255;-61
2022/07/21 02:18:52;;;;;;;14.02;11.98;;;;;;;;;;5004853;28;20606;-61
2022/07/21 02:21:17;;;;;;;16.70;12.85;;;;;;;;;;5003034;28;20636;-61
2022/07/21 02:23:42;;;;;;;16.55;13.13;;;;;;;;;;5004076;28;20631;-61
2022/07/21 02:26:07;;;;;;;14.20;12.70;;;;;;;;;;5003436;28;20762;-61
2022/07/21 02:28:33;;;;;;;16.55;13.75;;;;;;;;;;5004102;28;20663;-61
2022/07/21 02:30:58;;;;;;;15.32;13.13;;;;;;;;;;5003758;28;20217;-61
2022/07/21 02:33:23;;;;;;;17.70;15.25;;;;;;;;;;5003579;28;20220;-61
2022/07/21 02:35:49;;;;;;;18.73;14.48;;;;;;;;;;5003503;28;20212;-61
2022/07/21 02:38:14;;;;;;;16.35;14.65;;;;;;;;;;5003593;28;20243;-61
2022/07/21 02:40:39;;;;;;;16.45;14.50;;;;;;;;;;5003482;28;20307;-61
2022/07/21 02:43:05;;;;;;;18.08;15.27;;;;;;;;;;5003277;28;20211;-61
2022/07/21 02:45:31;;;;;;;17.15;15.20;;;;;;;;;;5003443;28;20316;-61
2022/07/21 02:47:58;;;;;;;16.85;13.90;;;;;;;;;;5003894;28;20307;-61
2022/07/21 02:50:24;;;;;;;15.93;13.07;;;;;;;;;;5022567;28;20204;-62
2022/07/21 02:52:49;;;;;;;20.30;14.70;;;;;;;;;;5021841;28;20215;-62
2022/07/21 02:55:15;;;;;;;15.80;14.05;;;;;;;;;;5022884;28;20247;-60
2022/07/21 02:57:40;;;;;;;17.37;15.50;;;;;;;;;;5021586;28;20970;-63
2022/07/21 03:00:06;;;;;;;18.20;16.30;;;;;;;;;;5021901;28;20422;-61
2022/07/21 03:02:31;;;;;;;16.63;14.93;;;;;;;;;;5007664;28;20217;-63
2022/07/21 03:04:57;;;;;;;21.50;16.60;;;;;;;;;;5004235;28;20258;-63
2022/07/21 03:07:22;;;;;;;16.88;14.70;;;;;;;;;;5002712;28;20228;-62
2022/07/21 03:09:48;;;;;;;20.67;17.77;;;;;;;;;;5010531;28;20208;-63
2022/07/21 03:12:13;;;;;;;19.55;17.55;;;;;;;;;;5023025;28;20243;-61
2022/07/21 03:14:38;;;;;;;19.30;16.80;;;;;;;;;;5023446;28;20245;-63
2022/07/21 03:17:03;;;;;;;19.33;17.23;;;;;;;;;;5024073;28;20215;-62
2022/07/21 03:19:29;;;;;;;22.58;18.98;;;;;;;;;;5022636;28;20207;-62
2022/07/21 03:21:54;;;;;;;19.98;17.00;;;;;;;;;;5022734;28;20258;-63
2022/07/21 03:24:19;;;;;;;21.08;18.77;;;;;;;;;;5021860;28;20222;-61
2022/07/21 03:26:45;;;;;;;19.25;17.13;;;;;;;;;;5022990;28;20254;-64
2022/07/21 03:29:10;;;;;;;19.50;17.55;;;;;;;;;;5022173;28;20716;-63
2022/07/21 03:31:36;;;;;;;20.27;17.27;;;;;;;;;;5022685;28;20490;-64
2022/07/21 03:34:01;;;;;;;20.95;18.67;;;;;;;;;;5022337;28;20839;-64
2022/07/21 03:36:26;;;;;;;20.10;17.05;;;;;;;;;;5023065;28;20262;-66
2022/07/21 03:38:52;;;;;;;19.88;16.63;;;;;;;;;;5022558;28;20630;-66
2022/07/21 03:41:17;;;;;;;19.42;17.23;;;;;;;;;;5022474;28;20674;-63
2022/07/21 03:43:42;;;;;;;19.48;16.60;;;;;;;;;;5022693;28;20212;-63
2022/07/21 03:46:08;;;;;;;21.77;15.43;;;;;;;;;;5022202;28;20861;-63
2022/07/21 03:48:33;;;;;;;20.48;16.35;;;;;;;;;;5021057;28;20212;-62
2022/07/21 03:50:58;;;;;;;18.48;16.10;;;;;;;;;;5024972;28;20333;-62
2022/07/21 03:53:23;;;;;;;20.23;16.80;;;;;;;;;;5007755;28;20216;-63
2022/07/21 03:55:49;;;;;;;17.52;15.63;;;;;;;;;;5002088;28;20303;-63
2022/07/21 03:58:14;;;;;;;20.58;16.02;;;;;;;;;;5001985;28;20687;-62
2022/07/21 04:00:40;;;;;;;20.80;16.27;;;;;;;;;;5002542;28;20231;-63
2022/07/21 04:03:06;;;;;;;19.75;17.63;;;;;;;;;;5002073;28;20215;-64
2022/07/21 04:05:32;;;;;;;20.80;16.80;;;;;;;;;;5000902;28;20228;-63
2022/07/21 04:07:57;;;;;;;21.48;17.02;;;;;;;;;;5001816;28;20255;-63
2022/07/21 04:10:24;;;;;;;20.42;17.98;;;;;;;;;;5001380;28;20324;-63
2022/07/21 04:12:50;;;;;;;20.95;17.85;;;;;;;;;;5001948;28;20238;-62
2022/07/21 04:15:15;;;;;;;19.55;17.02;;;;;;;;;;5002585;28;21020;-63
2022/07/21 04:17:40;;;;;;;22.45;19.80;;;;;;;;;;5001851;28;20299;-63
2022/07/21 04:20:06;;;;;;;20.25;18.15;;;;;;;;;;5001971;28;20228;-63
2022/07/21 04:22:32;;;;;;;20.60;18.40;;;;;;;;;;5002024;28;20217;-63
2022/07/21 04:24:57;;;;;;;20.13;17.08;;;;;;;;;;5020547;28;20259;-63
2022/07/21 04:27:22;;;;;;;21.40;19.08;;;;;;;;;;5021399;28;20215;-63
2022/07/21 04:29:47;;;;;;;23.55;19.58;;;;;;;;;;5011451;28;20223;-63
2022/07/21 04:32:13;;;;;;;22.50;18.23;;;;;;;;;;5002842;28;20283;-62
2022/07/21 04:34:38;;;;;;;25.45;22.10;;;;;;;;;;5001991;28;20220;-63
2022/07/21 04:37:03;;;;;;;23.20;20.05;;;;;;;;;;5001179;28;20259;-63
2022/07/21 04:39:29;;;;;;;23.67;19.67;;;;;;;;;;5001837;28;20216;-63
2022/07/21 04:41:54;;;;;;;24.17;20.83;;;;;;;;;;5001970;28;20208;-63
2022/07/21 04:44:20;;;;;;;23.52;20.85;;;;;;;;;;5000863;28;20729;-63
2022/07/21 04:46:45;;;;;;;22.67;20.15;;;;;;;;;;5002472;28;20687;-63
2022/07/21 04:49:10;;;;;;;21.90;18.90;;;;;;;;;;5001202;28;20254;-62
2022/07/21 04:51:36;;;;;;;22.98;20.48;;;;;;;;;;5001602;28;20274;-63
2022/07/21 04:54:01;;;;;;;22.55;19.00;;;;;;;;;;5019697;28;20572;-64
2022/07/21 04:56:26;;;;;;;21.85;17.83;;;;;;;;;;5020934;28;20690;-63
2022/07/21 04:58:51;;;;;;;22.27;19.83;;;;;;;;;;5020847;28;20203;-63
2022/07/21 05:01:18;;;;;;;22.95;20.35;;;;;;;;;;5020638;28;20238;-63
2022/07/21 05:03:43;;;;;;;27.00;21.15;;;;;;;;;;5021591;28;20605;-63
2022/07/21 05:06:09;;;;;;;26.52;21.08;;;;;;;;;;5020286;28;20266;-63
2022/07/21 05:08:34;;;;;;;23.33;19.52;;;;;;;;;;5020916;28;20204;-62
2022/07/21 05:10:59;;;;;;;27.70;22.77;;;;;;;;;;5020705;28;20617;-62
2022/07/21 05:13:24;;;;;;;25.50;21.27;;;;;;;;;;5019920;28;20281;-63
2022/07/21 05:15:50;;;;;;;25.20;21.10;;;;;;;;;;5007171;28;20216;-63
2022/07/21 05:18:16;;;;;;;30.33;20.15;;;;;;;;;;5001670;28;20565;-62
2022/07/21 05:20:41;;;;;;;25.48;21.17;;;;;;;;;;5001604;28;20216;-63
2022/07/21 05:23:08;;;;;;;25.80;21.02;;;;;;;;;;5000364;28;20221;-62
2022/07/21 05:25:35;;;;;;;24.70;22.00;;;;;;;;;;5020830;28;20219;-62
2022/07/21 05:28:00;;;;;;;28.67;22.48;;;;;;;;;;5020532;28;20678;-63
2022/07/21 05:30:26;;;;;;;26.27;22.17;;;;;;;;;;5026168;28;20281;-63
2022/07/21 05:32:51;;;;;;;29.10;23.20;;;;;;;;;;5022881;28;20328;-63
2022/07/21 05:35:16;;;;;;;26.48;21.63;;;;;;;;;;5039859;28;20212;-63
2022/07/21 05:37:42;;;;;;;32.92;23.15;;;;;;;;;;5040179;28;20207;-63
2022/07/21 05:40:07;;;;;;;25.55;21.90;;;;;;;;;;5039568;28;20211;-63
2022/07/21 05:42:33;;;;;;;30.17;23.33;;;;;;;;;;5024019;28;20227;-62
2022/07/21 05:44:58;;;;;;;30.15;23.48;;;;;;;;;;5020863;28;20937;-63
2022/07/21 05:47:24;;;;;;;30.67;23.70;;;;;;;;;;5039504;28;20226;-62
2022/07/21 05:49:49;;;;;;;31.98;24.80;;;;;;;;;;5040542;28;20219;-63
2022/07/21 05:52:14;;;;;;;31.02;24.08;;;;;;;;;;5039529;28;20211;-63
2022/07/21 05:54:39;;;;;;;29.50;24.15;;;;;;;;;;5039337;28;20647;-64
2022/07/21 05:57:05;;;;;;;26.05;22.52;;;;;;;;;;5040356;28;20424;-63
2022/07/21 05:59:30;;;;;;;30.58;23.77;;;;;;;;;;5040241;28;20265;-63
2022/07/21 06:01:55;;;;;;;32.55;25.40;;;;;;;;;;5040278;28;20219;-63
2022/07/21 06:04:21;;;;;;;30.73;25.88;;;;;;;;;;5040058;28;20226;-63
2022/07/21 06:06:46;;;;;;;30.75;24.88;;;;;;;;;;5040853;28;20231;-62
2022/07/21 06:09:11;;;;;;;29.02;24.35;;;;;;;;;;5042852;28;20227;-63
2022/07/21 06:11:37;;;;;;;33.78;25.58;;;;;;;;;;5043839;28;20219;-63
2022/07/21 06:14:02;;;;;;;32.53;27.05;;;;;;;;;;5043253;28;20217;-64
2022/07/21 06:16:28;;;;;;;34.65;26.98;;;;;;;;;;5024622;28;20215;-63
2022/07/21 06:18:53;;;;;;;39.33;29.65;;;;;;;;;;5024498;28;20222;-63
2022/07/21 06:21:18;;;;;;;35.53;28.27;;;;;;;;;;5023523;28;20212;-63
2022/07/21 06:23:43;;;;;;;35.58;29.70;;;;;;;;;;5024029;28;20250;-63
2022/07/21 06:26:09;;;;;;;36.63;30.30;;;;;;;;;;5021634;28;20318;-63
2022/07/21 06:28:34;;;;;;;33.13;29.17;;;;;;;;;;5023730;28;20682;-63
2022/07/21 06:31:00;;;;;;;38.20;29.17;;;;;;;;;;5004217;28;20695;-63
2022/07/21 06:33:25;;;;;;;35.83;28.17;;;;;;;;;;5003916;28;20786;-63
2022/07/21 06:35:50;;;;;;;35.28;29.58;;;;;;;;;;5004155;28;20217;-63
2022/07/21 06:38:16;;;;;;;36.55;28.60;;;;;;;;;;5003313;28;20814;-64
2022/07/21 06:40:41;;;;;;;32.30;27.70;;;;;;;;;;5003851;28;20219;-63
2022/07/21 06:43:06;;;;;;;35.75;29.30;;;;;;;;;;5003186;28;20208;-63
2022/07/21 06:45:31;;;;;;;33.72;28.90;;;;;;;;;;5005096;28;20733;-63
2022/07/21 06:48:06;;;;;;;31.98;26.42;;;;;;;;;;5023199;28;20789;-63
2022/07/21 06:50:32;;;;;;;32.67;27.55;;;;;;;;;;5035252;28;20609;-63
2022/07/21 06:52:57;;;;;;;35.30;29.88;;;;;;;;;;5024637;28;20697;-63
2022/07/21 06:55:23;;;;;;;36.88;30.38;;;;;;;;;;5042510;28;20234;-63
2022/07/21 06:57:48;;;;;;;32.95;29.38;;;;;;;;;;5042087;28;20269;-62
2022/07/21 07:00:14;;;;;;;30.90;27.45;;;;;;;;;;5043021;28;20207;-63
2022/07/21 07:02:39;;;;;;;33.25;27.30;;;;;;;;;;5043754;28;20223;-63
2022/07/21 07:05:04;;;;;;;36.15;27.95;;;;;;;;;;5031968;28;20231;-63
2022/07/21 07:07:30;;;;;;;33.13;27.65;;;;;;;;;;5032740;28;20744;-62
2022/07/21 07:09:55;;;;;;;31.27;26.73;;;;;;;;;;5032708;28;20216;-62
2022/07/21 07:12:21;;;;;;;30.92;25.52;;;;;;;;;;5031812;28;20287;-63
2022/07/21 07:14:46;;;;;;;34.83;27.35;;;;;;;;;;5038763;28;20211;-63
2022/07/21 07:17:15;;;;;;;33.53;28.10;;;;;;;;;;5051946;28;20218;-63
2022/07/21 07:19:40;;;;;;;31.40;26.88;;;;;;;;;;5051225;28;20227;-63
2022/07/21 07:22:05;;;;;;;35.85;28.50;;;;;;;;;;5051791;28;20203;-64
2022/07/21 07:24:30;;;;;;;35.92;28.13;;;;;;;;;;5052641;28;20215;-64
2022/07/21 07:26:56;;;;;;;35.25;28.00;;;;;;;;;;5051576;28;20223;-63
2022/07/21 07:29:22;;;;;;;36.03;27.20;;;;;;;;;;5048832;28;20240;-63
2022/07/21 07:31:47;;;;;;;29.63;26.17;;;;;;;;;;5040878;28;20212;-63
2022/07/21 07:34:12;;;;;;;35.83;27.20;;;;;;;;;;5031723;28;20207;-63
2022/07/21 07:36:38;;;;;;;30.90;27.13;;;;;;;;;;5032210;28;20222;-63
2022/07/21 07:39:03;;;;;;;31.67;27.08;;;;;;;;;;5031867;28;20212;-63
2022/07/21 07:41:29;;;;;;;29.00;25.90;;;;;;;;;;5031505;28;20212;-63
2022/07/21 07:43:54;;;;;;;32.20;25.77;;;;;;;;;;5031906;28;20230;-63
2022/07/21 07:46:19;;;;;;;30.45;24.50;;;;;;;;;;5032023;28;20234;-63
2022/07/21 07:48:45;;;;;;;29.38;23.98;;;;;;;;;;5031737;28;20345;-63
2022/07/21 07:51:10;;;;;;;33.35;24.50;;;;;;;;;;5031507;28;20211;-63
2022/07/21 07:53:36;;;;;;;31.10;22.88;;;;;;;;;;5031877;28;20744;-63
2022/07/21 07:56:01;;;;;;;29.70;23.23;;;;;;;;;;5031039;28;20211;-64
2022/07/21 07:58:26;;;;;;;29.40;22.48;;;;;;;;;;5031597;28;20582;-63
2022/07/21 08:00:52;;;;;;;34.10;22.65;;;;;;;;;;5026210;28;20202;-64
2022/07/21 08:03:17;;;;;;;31.10;23.77;;;;;;;;;;5040036;28;20575;-63
2022/07/21 08:05:42;;;;;;;34.33;26.08;;;;;;;;;;5045003;28;20725;-63
2022/07/21 08:08:08;;;;;;;31.80;23.98;;;;;;;;;;5033435;28;20621;-63
2022/07/21 08:10:33;;;;;;;29.77;21.98;;;;;;;;;;5032439;28;20242;-63
2022/07/21 08:12:59;;;;;;;32.13;23.65;;;;;;;;;;5036375;28;20299;-63
2022/07/21 08:15:24;;;;;;;27.67;22.75;;;;;;;;;;5041508;28;20203;-64
2022/07/21 08:17:49;;;;;;;30.25;24.33;;;;;;;;;;5051863;28;20231;-63
2022/07/21 08:20:14;;;;;;;29.10;24.10;;;;;;;;;;5051008;28;20574;-63
2022/07/21 08:22:40;;;;;;;27.45;21.63;;;;;;;;;;5050966;28;20223;-63
2022/07/21 08:25:05;;;;;;;29.92;21.92;;;;;;;;;;5050785;28;20211;-63
2022/07/21 08:27:30;;;;;;;31.55;23.60;;;;;;;;;;5051375;28;20273;-63
2022/07/21 08:29:56;;;;;;;30.42;22.05;;;;;;;;;;5042562;28;20208;-63
2022/07/21 08:32:21;;;;;;;27.65;22.42;;;;;;;;;;5030861;28;20230;-63
2022/07/21 08:34:46;;;;;;;30.38;22.60;;;;;;;;;;5031569;28;20212;-63
2022/07/21 08:37:12;;;;;;;29.42;22.63;;;;;;;;;;5030485;28;20732;-63
2022/07/21 08:39:37;;;;;;;29.30;21.45;;;;;;;;;;5031171;28;20302;-64
2022/07/21 08:42:02;;;;;;;31.05;21.50;;;;;;;;;;5030944;28;20223;-64
2022/07/21 08:44:28;;;;;;;27.33;20.33;;;;;;;;;;5030533;28;20222;-63
2022/07/21 08:46:53;;;;;;;26.77;20.58;;;;;;;;;;5031291;28;20306;-63
2022/07/21 08:49:21;;;;;;;26.40;21.48;;;;;;;;;;5031000;28;20224;-64
2022/07/21 08:51:47;;;;;;;30.73;21.67;;;;;;;;;;5030782;28;20215;-63
2022/07/21 08:54:13;;;;;;;30.55;21.90;;;;;;;;;;5030304;28;20208;-63
2022/07/21 08:56:38;;;;;;;27.92;22.00;;;;;;;;;;5031238;28;20706;-63
2022/07/21 08:59:05;;;;;;;28.15;22.38;;;;;;;;;;5029875;28;20220;-64
2022/07/21 09:01:30;;;;;;;26.40;21.13;;;;;;;;;;5030944;28;20215;-63
2022/07/21 09:03:55;;;;;;;28.25;20.52;;;;;;;;;;5013693;28;20207;-63
2022/07/21 09:06:21;;;;;;;29.33;21.30;;;;;;;;;;5009021;28;20232;-63
2022/07/21 09:08:54;;;;;;;29.55;22.33;;;;;;;;;;5011116;28;20211;-63
2022/07/21 09:11:21;;;;;;;28.80;21.50;;;;;;;;;;5010316;28;20307;-63
2022/07/21 09:13:51;;;;;;;30.15;21.05;;;;;;;;;;5023054;28;20351;-63
2022/07/21 09:16:28;;;;;;;29.45;20.73;;;;;;;;;;5010899;28;20291;-63
2022/07/21 09:18:53;;;;;;;27.73;21.10;;;;;;;;;;5010966;28;20263;-63
2022/07/21 09:21:19;;;;;;;33.65;21.27;;;;;;;;;;5010428;28;20248;-63
2022/07/21 09:23:44;;;;;;;29.88;21.48;;;;;;;;;;5011243;28;20212;-63
2022/07/21 09:26:09;;;;;;;29.73;22.23;;;;;;;;;;5007052;28;20222;-63
2022/07/21 09:28:35;;;;;;;29.27;21.25;;;;;;;;;;5011116;28;21012;-63
2022/07/21 09:31:01;;;;;;;28.77;22.23;;;;;;;;;;5011110;28;20215;-63
2022/07/21 09:33:26;;;;;;;30.50;21.73;;;;;;;;;;5021258;28;20685;-63
2022/07/21 09:35:53;;;;;;;30.55;20.52;;;;;;;;;;5030499;28;20216;-63
2022/07/21 09:38:18;;;;;;;29.95;21.20;;;;;;;;;;5030541;28;20216;-63
2022/07/21 09:40:49;;;;;;;31.23;20.63;;;;;;;;;;5030131;28;20238;-64
2022/07/21 09:43:29;;;;;;;28.65;19.13;;;;;;;;;;5016041;28;20258;-63
2022/07/21 09:45:55;;;;;;;27.52;18.20;;;;;;;;;;5034603;28;20238;-64
2022/07/21 09:48:31;;;;;;;21.85;15.95;;;;;;;;;;5033608;28;20235;-63
2022/07/21 09:50:56;;;;;;;20.85;14.25;;;;;;;;;;5034034;28;20207;-64
2022/07/21 09:53:22;;;;;;;20.00;13.18;;;;;;;;;;5033365;28;20207;-63
2022/07/21 09:55:47;;;;;;;16.60;12.32;;;;;;;;;;5034623;28;20547;-63
2022/07/21 09:58:12;;;;;;;15.48;11.40;;;;;;;;;;5032963;28;20216;-63
2022/07/21 10:00:37;;;;;;;17.73;11.88;;;;;;;;;;5033855;28;20258;-63
2022/07/21 10:03:03;;;;;;;16.63;10.75;;;;;;;;;;5033787;28;20216;-64
2022/07/21 10:05:29;;;;;;;14.60;10.25;;;;;;;;;;5032419;28;20235;-63
2022/07/21 10:07:54;;;;;;;13.60;9.82;;;;;;;;;;5051857;28;20222;-63
2022/07/21 10:10:19;;;;;;;11.73;7.63;;;;;;;;;;5053356;28;20246;-63
2022/07/21 10:12:45;;;;;;;9.00;6.30;;;;;;;;;;5046457;28;20303;-63
2022/07/21 10:15:10;;;;;;;15.70;5.40;;;;;;;;;;5033341;28;20250;-63
2022/07/21 10:17:35;;;;;;;9.05;5.80;;;;;;;;;;5033865;28;20239;-63
2022/07/21 10:20:01;;;;;;;10.40;5.63;;;;;;;;;;5033276;28;20572;-64
2022/07/21 10:22:36;;;;;;;7.97;5.13;;;;;;;;;;5032950;28;20572;-64
2022/07/21 10:25:01;;;;;;;6.78;4.50;;;;;;;;;;5015595;28;20251;-64
2022/07/21 10:27:27;;;;;;;8.68;4.78;;;;;;;;;;5034098;28;20258;-63
2022/07/21 10:29:53;;;;;;;6.05;4.35;;;;;;;;;;5048801;28;20222;-64
2022/07/21 10:32:20;;;;;;;6.35;4.07;;;;;;;;;;5052658;28;20295;-63
2022/07/21 10:34:45;;;;;;;6.07;3.78;;;;;;;;;;5053560;28;20248;-63
2022/07/21 10:37:11;;;;;;;7.07;4.25;;;;;;;;;;5052002;28;20238;-63
2022/07/21 10:39:37;;;;;;;7.90;4.63;;;;;;;;;;5035845;28;20219;-64
2022/07/21 10:42:13;;;;;;;7.93;4.40;;;;;;;;;;5053184;28;20218;-64
2022/07/21 10:44:38;;;;;;;5.95;4.70;;;;;;;;;;5035263;28;20219;-64
2022/07/21 10:47:04;;;;;;;6.60;4.50;;;;;;;;;;5052232;28;20231;-64
2022/07/21 10:49:41;;;;;;;6.40;4.10;;;;;;;;;;5053179;28;20292;-64
2022/07/21 10:52:26;;;;;;;6.20;5.00;;;;;;;;;;5052663;28;20215;-64
2022/07/21 10:55:11;;;;;;;5.90;4.43;;;;;;;;;;5053313;28;20574;-64
2022/07/21 10:57:37;;;;;;;7.00;5.13;;;;;;;;;;5052079;28;20287;-64
2022/07/21 11:00:19;;;;;;;6.47;4.93;;;;;;;;;;5052295;28;20215;-64
2022/07/21 11:02:46;;;;;;;7.22;4.90;;;;;;;;;;5052940;28;20587;-65
2022/07/21 11:05:11;;;;;;;6.85;5.10;;;;;;;;;;5052316;28;20223;-64
2022/07/21 11:07:55;;;;;;;9.77;4.97;;;;;;;;;;5052538;28;20281;-64
2022/07/21 11:10:20;;;;;;;7.70;5.72;;;;;;;;;;5052387;28;20321;-64
2022/07/21 11:12:55;;;;;;;7.65;5.53;;;;;;;;;;5028014;28;20228;-64
2022/07/21 11:15:39;;;;;;;7.90;5.55;;;;;;;;;;5032591;28;20223;-64
2022/07/21 11:18:05;;;;;;;7.50;6.70;;;;;;;;;;5031694;28;20230;-64
2022/07/21 11:20:30;;;;;;;7.93;5.95;;;;;;;;;;5032475;28;20215;-63
2022/07/21 11:23:02;;;;;;;8.13;6.07;;;;;;;;;;5032373;28;20216;-63
2022/07/21 11:25:28;;;;;;;8.02;5.97;;;;;;;;;;5031985;28;20234;-64
2022/07/21 11:27:54;;;;;;;5.93;4.13;;;;;;;;;;5032565;28;20208;-64
2022/07/21 11:30:19;;;;;;;5.32;3.33;;;;;;;;;;5032375;28;20228;-64
2022/07/21 11:32:46;;;;;;;8.15;3.60;;;;;;;;;;5031778;28;20232;-64
2022/07/21 11:35:12;;;;;;;5.80;2.92;;;;;;;;;;5031969;28;20220;-64
2022/07/21 11:37:39;;;;;;;4.72;3.05;;;;;;;;;;5014549;28;20724;-64
2022/07/21 11:40:05;;;;;;;6.00;3.17;;;;;;;;;;5031306;28;20549;-64
2022/07/21 11:42:30;;;;;;;5.93;3.45;;;;;;;;;;5032261;28;20204;-65
2022/07/21 11:44:56;;;;;;;8.52;3.75;;;;;;;;;;5032636;28;20238;-64
2022/07/21 11:47:25;;;;;;;9.02;3.80;;;;;;;;;;5031116;28;20673;-65
2022/07/21 11:49:51;;;;;;;6.25;3.22;;;;;;;;;;5031792;28;20584;-64
2022/07/21 11:52:17;;;;;;;9.88;4.00;;;;;;;;;;5031513;28;20218;-64
2022/07/21 11:54:49;;;;;;;8.30;4.30;;;;;;;;;;5031662;28;20220;-64
2022/07/21 11:57:15;;;;;;;6.15;3.95;;;;;;;;;;5031646;28;20215;-64
2022/07/21 11:59:40;;;;;;;6.03;3.88;;;;;;;;;;5032571;28;20222;-63
2022/07/21 12:02:08;;;;;;;6.57;4.07;;;;;;;;;;5030961;28;20579;-64
2022/07/21 12:04:37;;;;;;;6.88;4.30;;;;;;;;;;5013324;28;20295;-65
2022/07/21 12:07:03;;;;;;;7.63;4.28;;;;;;;;;;5030436;28;20635;-64
2022/07/21 12:09:29;;;;;;;6.13;3.97;;;;;;;;;;5032000;28;20208;-64
2022/07/21 12:11:54;;;;;;;5.68;4.40;;;;;;;;;;5014213;28;20253;-64
2022/07/21 12:14:20;;;;;;;6.05;4.15;;;;;;;;;;5013161;28;22498;-64
2022/07/21 12:16:48;;;;;;;8.20;4.93;;;;;;;;;;5045986;28;20218;-64
2022/07/21 12:19:15;;;;;;;7.07;4.75;;;;;;;;;;5050917;28;20211;-64
2022/07/21 12:21:49;;;;;;;5.93;4.20;;;;;;;;;;5019714;28;20212;-64
2022/07/21 12:24:15;;;;;;;7.35;5.43;;;;;;;;;;5022048;28;20298;-64
2022/07/21 12:26:40;;;;;;;10.25;5.03;;;;;;;;;;5014391;28;20224;-63
2022/07/21 12:29:05;;;;;;;9.98;6.10;;;;;;;;;;5030527;28;20658;-64
2022/07/21 12:31:31;;;;;;;9.05;5.80;;;;;;;;;;5031220;28;20902;-64
2022/07/21 12:33:57;;;;;;;9.52;6.63;;;;;;;;;;5031103;28;20222;-64
2022/07/21 12:36:23;;;;;;;11.32;7.18;;;;;;;;;;5030494;28;20220;-64
2022/07/21 12:38:48;;;;;;;9.15;7.43;;;;;;;;;;5013760;28;20672;-64
2022/07/21 12:41:14;;;;;;;10.23;7.57;;;;;;;;;;5031190;28;20696;-63
2022/07/21 12:43:40;;;;;;;8.82;7.43;;;;;;;;;;5030937;28;20270;-64
2022/07/21 12:46:06;;;;;;;8.77;6.68;;;;;;;;;;5030598;28;20216;-64
2022/07/21 12:48:32;;;;;;;9.95;7.60;;;;;;;;;;5031208;28;20212;-64
2022/07/21 12:51:03;;;;;;;8.57;6.03;;;;;;;;;;5030540;28;20211;-64
2022/07/21 12:53:29;;;;;;;8.20;6.53;;;;;;;;;;5050832;28;20242;-65
2022/07/21 12:55:54;;;;;;;8.90;6.22;;;;;;;;;;5051264;28;20242;-65
2022/07/21 12:58:19;;;;;;;6.78;5.60;;;;;;;;;;5050235;28;20219;-63
2022/07/21 13:00:45;;;;;;;7.68;5.55;;;;;;;;;;5049633;28;20235;-64
2022/07/21 13:03:10;;;;;;;10.23;5.35;;;;;;;;;;5021124;28;20318;-64
2022/07/21 13:05:35;;;;;;;9.65;5.40;;;;;;;;;;4999306;28;20594;-63
2022/07/21 13:08:01;;;;;;;7.05;5.63;;;;;;;;;;5007031;28;20235;-63
2022/07/21 13:10:26;;;;;;;7.57;5.47;;;;;;;;;;5018256;28;20241;-64
2022/07/21 13:12:51;;;;;;;6.93;5.28;;;;;;;;;;5010573;28;20213;-64
2022/07/21 13:15:17;;;;;;;10.05;6.10;;;;;;;;;;5003670;28;20208;-65
2022/07/21 13:17:42;;;;;;;7.97;6.25;;;;;;;;;;5022923;28;20314;-64
2022/07/21 13:20:08;;;;;;;9.32;5.60;;;;;;;;;;5015293;28;20219;-64
2022/07/21 13:22:33;;;;;;;7.80;5.68;;;;;;;;;;5029047;28;20712;-64
2022/07/21 13:24:58;;;;;;;7.93;5.97;;;;;;;;;;5027894;28;20215;-64
2022/07/21 13:27:24;;;;;;;7.68;6.05;;;;;;;;;;5021190;28;20220;-64
2022/07/21 13:29:49;;;;;;;9.73;6.10;;;;;;;;;;5011786;28;20224;-64
2022/07/21 13:32:14;;;;;;;8.48;6.13;;;;;;;;;;5009176;28;20477;-64
2022/07/21 13:34:40;;;;;;;8.60;5.53;;;;;;;;;;5026449;28;20211;-64
2022/07/21 13:37:05;;;;;;;10.52;5.28;;;;;;;;;;5024040;28;20228;-64
2022/07/21 13:39:32;;;;;;;7.20;5.03;;;;;;;;;;5009200;28;20208;-64
2022/07/21 13:41:58;;;;;;;6.97;5.03;;;;;;;;;;5009381;28;20208;-64
2022/07/21 13:44:23;;;;;;;12.48;5.38;;;;;;;;;;5009070;28;20221;-64
2022/07/21 13:46:48;;;;;;;7.30;4.88;;;;;;;;;;5008218;28;20275;-64
2022/07/21 13:49:14;;;;;;;8.35;5.20;;;;;;;;;;5004383;28;20220;-63
2022/07/21 13:51:39;;;;;;;6.45;5.03;;;;;;;;;;5001307;28;20403;-64
2022/07/21 13:54:04;;;;;;;10.60;5.60;;;;;;;;;;4996791;28;20220;-64
2022/07/21 13:56:30;;;;;;;10.45;6.05;;;;;;;;;;5017514;28;20219;-65
2022/07/21 13:58:55;;;;;;;9.02;5.63;;;;;;;;;;5029266;28;20212;-63
2022/07/21 14:01:20;;;;;;;7.00;5.22;;;;;;;;;;5046370;28;20847;-64
2022/07/21 14:03:46;;;;;;;6.32;5.30;;;;;;;;;;5030055;28;20337;-64
2022/07/21 14:06:12;;;;;;;8.27;5.30;;;;;;;;;;5046947;28;20237;-64
2022/07/21 14:08:37;;;;;;;12.77;5.55;;;;;;;;;;5048050;28;20580;-64
2022/07/21 14:11:03;;;;;;;6.85;5.07;;;;;;;;;;5023973;28;20678;-64
2022/07/21 14:13:28;;;;;;;6.68;5.95;;;;;;;;;;5031496;28;20218;-64
2022/07/21 14:15:53;;;;;;;7.05;5.45;;;;;;;;;;5033157;28;20204;-64
2022/07/21 14:18:19;;;;;;;8.95;6.00;;;;;;;;;;5033543;28;20215;-63